createdAt,value
2024-03-27T00:01:10.889Z,9.60
2024-03-27T00:03:45.571Z,10.33
2024-03-27T00:06:12.259Z,10.57
2024-03-27T00:08:39.126Z,7.40
2024-03-27T00:11:05.622Z,9.37
2024-03-27T00:13:32.696Z,9.73
2024-03-27T00:15:59.300Z,9.87
2024-03-27T00:18:26.406Z,8.63
2024-03-27T00:20:53.244Z,6.90
2024-03-27T00:23:20.045Z,9.57
2024-03-27T00:25:46.624Z,10.83
2024-03-27T00:28:13.463Z,8.17
2024-03-27T00:30:40.374Z,7.97
2024-03-27T00:33:07.402Z,8.60
2024-03-27T00:35:33.860Z,9.67
2024-03-27T00:38:00.764Z,8.60
2024-03-27T00:40:27.535Z,10.20
2024-03-27T00:42:55.914Z,8.73
2024-03-27T00:45:22.927Z,9.07
2024-03-27T00:47:49.848Z,9.97
2024-03-27T00:50:16.332Z,8.40
2024-03-27T00:52:43.215Z,10.70
2024-03-27T00:55:09.684Z,8.70
2024-03-27T00:57:36.604Z,10.27
2024-03-27T01:00:03.619Z,6.97
2024-03-27T01:02:30.459Z,8.57
2024-03-27T01:04:57.072Z,10.20
2024-03-27T01:07:24.119Z,8.83
2024-03-27T01:09:50.655Z,10.93
2024-03-27T01:12:17.451Z,8.97
2024-03-27T01:14:44.166Z,8.27
2024-03-27T01:17:10.795Z,6.83
2024-03-27T01:19:37.576Z,8.73
2024-03-27T01:22:04.367Z,10.70
2024-03-27T01:24:30.969Z,9.30
2024-03-27T01:26:57.923Z,9.70
2024-03-27T01:29:24.272Z,9.50
2024-03-27T01:31:51.116Z,9.53
2024-03-27T01:34:17.644Z,8.83
2024-03-27T01:36:44.463Z,8.13
2024-03-27T01:39:10.903Z,8.80
2024-03-27T01:41:38.026Z,9.90
2024-03-27T01:44:04.493Z,8.87
2024-03-27T01:46:31.672Z,9.40
2024-03-27T01:48:58.185Z,9.10
2024-03-27T01:51:25.026Z,10.63
2024-03-27T01:53:51.660Z,8.47
2024-03-27T01:56:19.361Z,8.77
2024-03-27T01:58:46.746Z,8.63
2024-03-27T02:01:13.494Z,10.37
2024-03-27T02:03:40.732Z,8.47
2024-03-27T02:06:08.666Z,8.17
2024-03-27T02:08:35.609Z,8.23
2024-03-27T02:11:02.951Z,8.93
2024-03-27T02:13:30.160Z,9.00
2024-03-27T02:16:01.095Z,8.83
2024-03-27T02:18:27.820Z,8.30
2024-03-27T02:21:22.471Z,8.20
2024-03-27T02:24:17.801Z,9.27
2024-03-27T02:26:45.124Z,9.13
2024-03-27T02:29:11.687Z,8.33
2024-03-27T02:31:39.127Z,7.30
2024-03-27T02:34:06.105Z,8.63
2024-03-27T02:36:33.112Z,8.33
2024-03-27T02:38:59.874Z,11.13
2024-03-27T02:41:26.984Z,6.87
2024-03-27T02:43:54.298Z,9.93
2024-03-27T02:46:21.189Z,8.00
2024-03-27T02:48:48.267Z,10.33
2024-03-27T02:51:15.260Z,11.43
2024-03-27T02:53:41.931Z,10.40
2024-03-27T02:56:08.705Z,9.33
2024-03-27T02:58:35.233Z,10.43
2024-03-27T03:01:02.150Z,9.80
2024-03-27T03:03:28.968Z,8.57
2024-03-27T03:05:59.190Z,9.67
2024-03-27T03:08:25.693Z,10.33
2024-03-27T03:10:53.332Z,8.93
2024-03-27T03:13:20.224Z,9.23
2024-03-27T03:15:46.957Z,8.13
2024-03-27T03:18:13.522Z,8.97
2024-03-27T03:20:40.258Z,8.50
2024-03-27T03:23:06.871Z,10.13
2024-03-27T03:25:34.129Z,10.37
2024-03-27T03:28:00.889Z,8.97
2024-03-27T03:30:28.091Z,12.23
2024-03-27T03:32:54.946Z,9.63
2024-03-27T03:35:21.712Z,8.63
2024-03-27T03:37:48.129Z,10.67
2024-03-27T03:40:15.277Z,9.37
2024-03-27T03:42:41.613Z,8.20
2024-03-27T03:45:08.632Z,8.20
2024-03-27T03:47:35.360Z,8.43
2024-03-27T03:50:02.444Z,9.80
2024-03-27T03:52:28.912Z,9.27
2024-03-27T03:54:55.712Z,9.03
2024-03-27T03:57:22.054Z,10.73
2024-03-27T03:59:48.769Z,10.30
2024-03-27T04:02:15.490Z,9.00
2024-03-27T04:04:42.421Z,10.23
2024-03-27T04:07:09.121Z,9.40
2024-03-27T04:09:35.904Z,8.80
2024-03-27T04:12:02.484Z,8.43
2024-03-27T04:14:29.434Z,9.63
2024-03-27T04:16:55.826Z,10.63
2024-03-27T04:19:22.661Z,9.10
2024-03-27T04:21:49.030Z,11.20
2024-03-27T04:24:16.778Z,7.87
2024-03-27T04:26:43.705Z,8.30
2024-03-27T04:29:11.216Z,12.33
2024-03-27T04:31:38.552Z,10.10
2024-03-27T04:34:06.670Z,8.87
2024-03-27T04:36:33.558Z,8.30
2024-03-27T04:39:00.640Z,10.43
2024-03-27T04:41:27.380Z,9.17
2024-03-27T04:43:54.284Z,8.53
2024-03-27T04:46:21.063Z,9.33
2024-03-27T04:48:47.796Z,8.43
2024-03-27T04:51:14.273Z,8.83
2024-03-27T04:53:41.171Z,7.77
2024-03-27T04:56:08.233Z,9.30
2024-03-27T04:58:34.975Z,8.53
2024-03-27T05:01:01.604Z,7.00
2024-03-27T05:03:28.531Z,12.43
2024-03-27T05:05:55.371Z,9.27
2024-03-27T05:08:22.006Z,9.50
2024-03-27T05:10:48.515Z,7.60
2024-03-27T05:13:16.086Z,6.27
2024-03-27T05:15:42.783Z,9.87
2024-03-27T05:18:09.692Z,8.70
2024-03-27T05:20:37.134Z,8.60
2024-03-27T05:23:03.994Z,9.50
2024-03-27T05:25:30.371Z,8.43
2024-03-27T05:27:59.145Z,6.97
2024-03-27T05:30:26.085Z,9.20
2024-03-27T05:32:52.969Z,7.60
2024-03-27T05:35:19.500Z,6.90
2024-03-27T05:37:49.100Z,9.00
2024-03-27T05:40:15.916Z,7.23
2024-03-27T05:42:45.597Z,9.17
2024-03-27T05:45:12.467Z,10.27
2024-03-27T05:47:42.507Z,10.73
2024-03-27T05:50:10.466Z,7.97
2024-03-27T05:52:37.500Z,8.37
2024-03-27T05:55:04.523Z,6.73
2024-03-27T05:57:31.310Z,8.93
2024-03-27T05:59:57.786Z,8.37
2024-03-27T06:02:24.465Z,7.00
2024-03-27T06:04:50.984Z,7.70
2024-03-27T06:07:17.715Z,7.47
2024-03-27T06:09:45.138Z,9.83
2024-03-27T06:12:12.474Z,7.73
2024-03-27T06:14:38.966Z,9.90
2024-03-27T06:17:05.721Z,10.63
2024-03-27T06:19:32.218Z,12.40
2024-03-27T06:21:59.006Z,23.80
2024-03-27T06:24:25.383Z,10.27
2024-03-27T06:26:53.813Z,11.50
2024-03-27T06:29:21.742Z,8.30
2024-03-27T06:31:48.894Z,7.37
2024-03-27T06:34:15.315Z,6.13
2024-03-27T06:36:41.987Z,12.80
2024-03-27T06:39:12.906Z,8.40
2024-03-27T06:41:40.589Z,7.97
2024-03-27T06:44:09.550Z,8.50
2024-03-27T06:46:39.420Z,8.43
2024-03-27T06:49:18.656Z,8.00
2024-03-27T06:51:46.539Z,6.47
2024-03-27T06:54:13.169Z,8.20
2024-03-27T06:56:40.121Z,8.60
2024-03-27T06:59:07.526Z,8.30
2024-03-27T07:01:35.866Z,9.03
2024-03-27T07:04:04.128Z,24.83
2024-03-27T07:06:31.350Z,28.83
2024-03-27T07:08:58.480Z,18.10
2024-03-27T07:11:25.363Z,20.00
2024-03-27T07:13:53.611Z,11.53
2024-03-27T07:16:22.197Z,22.93
2024-03-27T07:18:48.657Z,7.93
2024-03-27T07:21:15.438Z,25.97
2024-03-27T07:23:41.782Z,23.57
2024-03-27T07:26:09.312Z,20.90
2024-03-27T07:28:36.231Z,32.10
2024-03-27T07:31:07.334Z,14.33
2024-03-27T07:33:34.395Z,8.20
2024-03-27T07:36:01.302Z,11.53
2024-03-27T07:38:27.996Z,9.80
2024-03-27T07:40:54.916Z,28.00
2024-03-27T07:43:21.860Z,12.80
2024-03-27T07:45:48.745Z,13.53
2024-03-27T07:48:15.400Z,19.47
2024-03-27T07:50:42.422Z,14.33
2024-03-27T07:53:08.844Z,10.10
2024-03-27T07:55:35.562Z,9.17
2024-03-27T07:58:01.906Z,10.77
2024-03-27T08:00:29.000Z,7.33
2024-03-27T08:02:55.560Z,7.40
2024-03-27T08:05:22.310Z,8.80
2024-03-27T08:07:48.634Z,8.20
2024-03-27T08:10:15.724Z,8.50
2024-03-27T08:12:42.241Z,7.30
2024-03-27T08:15:11.346Z,10.17
2024-03-27T08:17:38.132Z,6.20
2024-03-27T08:20:06.546Z,7.53
2024-03-27T08:22:33.102Z,6.37
2024-03-27T08:24:59.927Z,12.93
2024-03-27T08:27:26.527Z,5.67
2024-03-27T08:29:54.494Z,6.47
2024-03-27T08:32:21.393Z,6.10
2024-03-27T08:34:48.080Z,8.50
2024-03-27T08:37:14.398Z,9.40
2024-03-27T08:39:42.875Z,8.03
2024-03-27T08:42:09.366Z,5.60
2024-03-27T08:44:36.089Z,6.60
2024-03-27T08:47:02.657Z,10.27
2024-03-27T08:49:29.485Z,8.10
2024-03-27T08:51:56.487Z,6.77
2024-03-27T08:54:23.275Z,8.93
2024-03-27T08:56:49.999Z,6.93
2024-03-27T08:59:16.838Z,6.17
2024-03-27T09:01:43.262Z,8.30
2024-03-27T09:04:10.031Z,8.83
2024-03-27T09:06:37.446Z,6.63
2024-03-27T09:09:05.586Z,4.90
2024-03-27T09:11:32.498Z,8.57
2024-03-27T09:13:59.495Z,9.13
2024-03-27T09:16:26.116Z,7.10
2024-03-27T09:18:53.021Z,6.53
2024-03-27T09:21:19.438Z,6.90
2024-03-27T09:23:46.471Z,6.03
2024-03-27T09:26:12.941Z,5.60
2024-03-27T09:28:39.729Z,7.40
2024-03-27T09:31:06.245Z,11.27
2024-03-27T09:33:33.145Z,11.43
2024-03-27T09:36:01.596Z,7.77
2024-03-27T09:38:33.729Z,4.77
2024-03-27T09:41:03.106Z,5.80
2024-03-27T09:43:32.563Z,7.27
2024-03-27T09:45:59.375Z,9.23
2024-03-27T09:48:26.521Z,7.97
2024-03-27T09:50:56.259Z,6.67
2024-03-27T09:53:23.020Z,6.57
2024-03-27T09:55:50.725Z,5.40
2024-03-27T09:58:18.974Z,7.90
2024-03-27T10:00:45.734Z,5.30
2024-03-27T10:03:14.949Z,5.20
2024-03-27T10:05:44.102Z,6.33
2024-03-27T10:08:10.765Z,4.57
2024-03-27T10:10:37.509Z,9.13
2024-03-27T10:13:05.017Z,6.03
2024-03-27T10:15:33.683Z,5.03
2024-03-27T10:18:00.436Z,5.87
2024-03-27T10:20:26.824Z,4.80
2024-03-27T10:22:53.525Z,5.60
2024-03-27T10:25:20.979Z,14.77
2024-03-27T10:27:48.613Z,5.83
2024-03-27T10:30:15.237Z,5.13
2024-03-27T10:32:41.925Z,10.07
2024-03-27T10:35:09.196Z,5.57
2024-03-27T10:37:36.361Z,6.00
2024-03-27T10:40:08.314Z,7.80
2024-03-27T10:42:39.345Z,4.57
2024-03-27T10:45:07.091Z,5.37
2024-03-27T10:47:34.762Z,7.70
2024-03-27T10:50:04.955Z,5.23
2024-03-27T10:52:32.833Z,8.43
2024-03-27T10:55:01.590Z,6.73
2024-03-27T10:57:28.776Z,5.73
2024-03-27T10:59:57.836Z,6.57
2024-03-27T11:02:24.599Z,7.07
2024-03-27T11:05:05.006Z,6.63
2024-03-27T11:07:35.975Z,5.13
2024-03-27T11:10:02.999Z,11.97
2024-03-27T11:12:30.459Z,10.60
2024-03-27T11:15:04.599Z,9.27
2024-03-27T11:17:32.476Z,12.83
2024-03-27T11:20:05.274Z,7.83
2024-03-27T11:22:36.491Z,9.17
2024-03-27T11:25:09.891Z,5.60
2024-03-27T11:27:38.031Z,7.07
2024-03-27T11:30:04.993Z,5.47
2024-03-27T11:32:37.687Z,6.33
2024-03-27T11:35:05.082Z,7.00
2024-03-27T11:37:31.998Z,5.37
2024-03-27T11:40:18.247Z,9.70
2024-03-27T11:42:45.210Z,4.73
2024-03-27T11:45:11.967Z,4.43
2024-03-27T11:47:39.183Z,6.10
2024-03-27T11:50:08.482Z,9.10
2024-03-27T11:52:35.495Z,6.37
2024-03-27T11:55:01.992Z,6.88
2024-03-27T11:57:30.237Z,8.63
2024-03-27T12:00:05.609Z,6.63
2024-03-27T12:02:35.116Z,4.28
2024-03-27T12:05:04.670Z,4.13
2024-03-27T12:07:36.086Z,3.20
2024-03-27T12:10:09.844Z,4.30
2024-03-27T12:12:36.858Z,11.70
2024-03-27T12:15:03.713Z,6.20
2024-03-27T12:17:40.057Z,4.35
2024-03-27T12:20:12.556Z,7.90
2024-03-27T12:22:39.296Z,6.20
2024-03-27T12:25:05.999Z,5.57
2024-03-27T12:27:33.855Z,5.00
2024-03-27T12:30:00.729Z,5.60
2024-03-27T12:32:29.034Z,6.57
2024-03-27T12:34:57.472Z,3.83
2024-03-27T12:37:25.962Z,5.23
2024-03-27T12:39:52.333Z,8.27
2024-03-27T12:42:19.071Z,3.87
2024-03-27T12:44:45.425Z,6.75
2024-03-27T12:47:12.100Z,4.68
2024-03-27T12:49:38.495Z,9.00
2024-03-27T12:52:05.164Z,10.02
2024-03-27T12:54:32.704Z,5.13
2024-03-27T12:57:00.830Z,6.53
2024-03-27T12:59:27.365Z,6.95
2024-03-27T13:01:54.522Z,10.85
2024-03-27T13:04:22.500Z,4.05
2024-03-27T13:06:49.463Z,5.25
2024-03-27T13:09:16.006Z,6.15
2024-03-27T13:11:44.124Z,6.95
2024-03-27T13:14:10.789Z,10.25
2024-03-27T13:16:37.909Z,8.35
2024-03-27T13:19:05.064Z,7.00
2024-03-27T13:21:32.221Z,7.07
2024-03-27T13:23:58.803Z,5.43
2024-03-27T13:26:26.184Z,4.60
2024-03-27T13:28:52.775Z,5.88
2024-03-27T13:31:20.172Z,6.78
2024-03-27T13:33:46.795Z,5.47
2024-03-27T13:36:13.816Z,4.20
2024-03-27T13:38:40.427Z,6.28
2024-03-27T13:41:07.384Z,6.25
2024-03-27T13:43:33.763Z,10.93
2024-03-27T13:46:01.533Z,5.80
2024-03-27T13:48:29.581Z,6.75
2024-03-27T13:50:57.099Z,4.95
2024-03-27T13:53:23.611Z,8.43
2024-03-27T13:55:50.376Z,3.47
2024-03-27T13:58:16.917Z,5.07
2024-03-27T14:00:43.671Z,7.38
2024-03-27T14:03:10.069Z,9.18
2024-03-27T14:05:37.449Z,8.35
2024-03-27T14:08:06.070Z,6.57
2024-03-27T14:10:34.393Z,9.07
2024-03-27T14:13:02.158Z,6.13
2024-03-27T14:15:29.558Z,6.82
2024-03-27T14:17:56.144Z,9.02
2024-03-27T14:20:23.135Z,7.57
2024-03-27T14:22:49.575Z,7.70
2024-03-27T14:25:17.226Z,4.82
2024-03-27T14:27:43.610Z,5.05
2024-03-27T14:30:10.933Z,3.42
2024-03-27T14:32:37.395Z,5.13
2024-03-27T14:35:05.029Z,4.95
2024-03-27T14:37:31.519Z,4.97
2024-03-27T14:39:58.286Z,7.53
2024-03-27T14:42:25.643Z,4.23
2024-03-27T14:44:52.267Z,3.90
2024-03-27T14:47:18.845Z,7.72
2024-03-27T14:49:45.755Z,8.00
2024-03-27T14:52:12.485Z,34.53
2024-03-27T14:54:39.203Z,38.95
2024-03-27T14:57:05.749Z,15.23
2024-03-27T14:59:32.642Z,23.73
2024-03-27T15:01:59.191Z,14.88
2024-03-27T15:04:26.195Z,5.65
2024-03-27T15:06:53.419Z,5.38
2024-03-27T15:09:22.048Z,3.40
2024-03-27T15:11:50.964Z,4.05
2024-03-27T15:14:17.661Z,3.92
2024-03-27T15:16:44.111Z,3.03
2024-03-27T15:19:11.055Z,4.25
2024-03-27T15:21:37.565Z,3.72
2024-03-27T15:24:05.255Z,3.90
2024-03-27T15:26:31.974Z,12.98
2024-03-27T15:28:59.172Z,26.38
2024-03-27T15:31:25.658Z,29.92
2024-03-27T15:33:52.533Z,29.60
2024-03-27T15:36:19.135Z,6.88
2024-03-27T15:38:46.000Z,3.87
2024-03-27T15:41:13.528Z,5.55
2024-03-27T15:43:40.260Z,4.00
2024-03-27T15:46:06.687Z,5.25
2024-03-27T15:48:33.743Z,5.93
2024-03-27T15:51:00.407Z,6.90
2024-03-27T15:53:27.316Z,5.93
2024-03-27T15:55:53.765Z,3.40
2024-03-27T15:58:20.656Z,4.73
2024-03-27T16:00:48.599Z,16.60
2024-03-27T16:03:15.422Z,5.57
2024-03-27T16:05:42.206Z,5.60
2024-03-27T16:08:09.031Z,3.47
2024-03-27T16:10:35.793Z,6.37
2024-03-27T16:13:02.943Z,4.33
2024-03-27T16:15:29.518Z,5.87
2024-03-27T16:17:56.420Z,3.90
2024-03-27T16:20:23.154Z,4.28
2024-03-27T16:22:51.985Z,5.90
2024-03-27T16:25:19.599Z,7.23
2024-03-27T16:27:46.346Z,4.33
2024-03-27T16:30:12.834Z,14.73
2024-03-27T16:32:39.586Z,11.17
2024-03-27T16:35:06.459Z,5.50
2024-03-27T16:37:33.213Z,7.87
2024-03-27T16:39:59.937Z,5.40
2024-03-27T16:42:26.913Z,4.90
2024-03-27T16:44:53.458Z,4.33
2024-03-27T16:47:20.384Z,4.47
2024-03-27T16:49:47.753Z,3.47
2024-03-27T16:52:14.777Z,4.53
2024-03-27T16:54:44.675Z,4.43
2024-03-27T16:57:12.185Z,8.70
2024-03-27T16:59:38.588Z,8.87
2024-03-27T17:02:05.729Z,9.53
2024-03-27T17:04:32.116Z,38.27
2024-03-27T17:06:58.845Z,43.70
2024-03-27T17:09:25.276Z,44.23
2024-03-27T17:11:52.189Z,26.17
2024-03-27T17:14:18.578Z,13.20
2024-03-27T17:16:45.603Z,12.80
2024-03-27T17:19:12.029Z,8.30
2024-03-27T17:21:39.037Z,8.07
2024-03-27T17:24:06.371Z,5.13
2024-03-27T17:26:33.997Z,7.47
2024-03-27T17:29:01.724Z,3.97
2024-03-27T17:31:28.506Z,4.43
2024-03-27T17:33:54.918Z,6.10
2024-03-27T17:36:21.903Z,5.00
2024-03-27T17:38:51.089Z,3.30
2024-03-27T17:41:18.072Z,8.73
2024-03-27T17:43:44.638Z,8.87
2024-03-27T17:46:11.335Z,7.10
2024-03-27T17:48:37.886Z,5.50
2024-03-27T17:51:05.018Z,8.30
2024-03-27T17:53:35.229Z,7.47
2024-03-27T17:56:03.703Z,6.30
2024-03-27T17:58:32.276Z,6.93
2024-03-27T18:01:12.867Z,5.60
2024-03-27T18:03:40.040Z,6.33
2024-03-27T18:06:09.205Z,4.40
2024-03-27T18:08:36.117Z,7.80
2024-03-27T18:11:04.388Z,6.57
2024-03-27T18:13:31.312Z,6.23
2024-03-27T18:16:03.258Z,7.83
2024-03-27T18:18:30.531Z,6.33
2024-03-27T18:20:59.003Z,8.73
2024-03-27T18:23:26.128Z,7.37
2024-03-27T18:25:53.252Z,5.63
2024-03-27T18:28:21.725Z,11.53
2024-03-27T18:31:00.422Z,7.00
2024-03-27T18:33:27.625Z,6.57
2024-03-27T18:35:54.629Z,5.83
2024-03-27T18:38:21.534Z,6.47
2024-03-27T18:40:48.923Z,10.10
2024-03-27T18:43:15.485Z,10.30
2024-03-27T18:45:48.345Z,10.63
2024-03-27T18:48:14.838Z,9.37
2024-03-27T18:50:41.909Z,7.13
2024-03-27T18:53:08.499Z,8.33
2024-03-27T18:55:35.515Z,7.70
2024-03-27T18:58:03.521Z,8.47
2024-03-27T19:00:30.403Z,8.23
2024-03-27T19:02:57.088Z,8.47
2024-03-27T19:05:23.851Z,7.37
2024-03-27T19:07:50.265Z,8.13
2024-03-27T19:10:17.098Z,8.13
2024-03-27T19:12:43.663Z,6.60
2024-03-27T19:15:10.608Z,8.27
2024-03-27T19:17:37.047Z,6.53
2024-03-27T19:20:04.860Z,5.43
2024-03-27T19:22:34.025Z,10.83
2024-03-27T19:25:01.034Z,9.13
2024-03-27T19:27:27.833Z,12.17
2024-03-27T19:29:54.572Z,9.30
2024-03-27T19:32:21.242Z,11.33
2024-03-27T19:34:48.508Z,8.27
2024-03-27T19:37:15.296Z,7.57
2024-03-27T19:39:42.054Z,7.60
2024-03-27T19:42:09.998Z,4.83
2024-03-27T19:44:36.982Z,5.60
2024-03-27T19:47:03.511Z,4.80
2024-03-27T19:49:30.387Z,5.63
2024-03-27T19:52:09.586Z,7.80
2024-03-27T19:54:42.140Z,20.90
2024-03-27T19:57:08.552Z,28.87
2024-03-27T19:59:35.468Z,7.13
2024-03-27T20:02:01.920Z,8.47
2024-03-27T20:04:28.595Z,6.77
2024-03-27T20:06:55.237Z,7.50
2024-03-27T20:09:22.145Z,7.57
2024-03-27T20:11:48.511Z,10.07
2024-03-27T20:14:15.343Z,6.13
2024-03-27T20:16:43.002Z,10.00
2024-03-27T20:19:09.854Z,9.67
2024-03-27T20:21:36.354Z,9.30
2024-03-27T20:24:03.343Z,9.17
2024-03-27T20:26:30.473Z,17.27
2024-03-27T20:28:57.325Z,6.13
2024-03-27T20:31:23.804Z,6.83
2024-03-27T20:33:50.953Z,7.53
2024-03-27T20:36:17.544Z,6.97
2024-03-27T20:38:44.502Z,8.60
2024-03-27T20:41:11.518Z,7.43
2024-03-27T20:43:38.239Z,12.93
2024-03-27T20:46:08.369Z,8.90
2024-03-27T20:48:35.448Z,14.30
2024-03-27T20:51:05.125Z,8.93
2024-03-27T20:53:31.981Z,10.03
2024-03-27T20:55:58.785Z,7.03
2024-03-27T20:58:25.561Z,9.00
2024-03-27T21:00:53.150Z,7.43
2024-03-27T21:03:20.195Z,5.23
2024-03-27T21:05:47.290Z,6.97
2024-03-27T21:08:14.093Z,8.33
2024-03-27T21:10:49.009Z,13.80
2024-03-27T21:13:16.322Z,7.03
2024-03-27T21:15:46.117Z,6.07
2024-03-27T21:18:13.287Z,8.43
2024-03-27T21:20:40.007Z,8.53
2024-03-27T21:23:07.423Z,8.07
2024-03-27T21:25:34.154Z,6.13
2024-03-27T21:28:01.131Z,7.13
2024-03-27T21:30:27.651Z,5.03
2024-03-27T21:32:54.617Z,5.17
2024-03-27T21:35:21.528Z,6.93
2024-03-27T21:37:48.752Z,5.47
2024-03-27T21:40:15.242Z,8.40
2024-03-27T21:42:42.316Z,6.93
2024-03-27T21:45:09.392Z,7.03
2024-03-27T21:47:36.474Z,7.73
2024-03-27T21:50:02.957Z,8.13
2024-03-27T21:52:29.850Z,6.17
2024-03-27T21:54:57.285Z,6.50
2024-03-27T21:57:24.359Z,29.53
2024-03-27T21:59:50.849Z,13.20
2024-03-27T22:02:17.909Z,6.77
2024-03-27T22:04:44.769Z,5.13
2024-03-27T22:07:11.511Z,6.70
2024-03-27T22:09:37.988Z,4.60
2024-03-27T22:12:05.417Z,6.90
2024-03-27T22:14:31.796Z,5.53
2024-03-27T22:16:58.502Z,7.07
2024-03-27T22:19:25.140Z,8.57
2024-03-27T22:21:51.755Z,5.60
2024-03-27T22:24:20.153Z,8.90
2024-03-27T22:26:47.745Z,6.00
2024-03-27T22:29:14.307Z,7.03
2024-03-27T22:31:41.168Z,6.37
2024-03-27T22:34:08.455Z,7.37
2024-03-27T22:36:35.561Z,9.63
2024-03-27T22:39:01.927Z,7.97
2024-03-27T22:41:33.095Z,6.97
2024-03-27T22:43:59.783Z,6.50
2024-03-27T22:46:26.748Z,6.10
2024-03-27T22:48:57.275Z,7.37
2024-03-27T22:51:28.594Z,6.93
2024-03-27T22:53:55.209Z,8.17
2024-03-27T22:56:22.347Z,4.93
2024-03-27T22:58:48.790Z,7.17
2024-03-27T23:01:18.947Z,7.63
2024-03-27T23:03:45.572Z,9.67
2024-03-27T23:06:12.511Z,5.57
2024-03-27T23:08:38.865Z,7.00
2024-03-27T23:11:06.020Z,6.40
2024-03-27T23:13:32.579Z,6.27
2024-03-27T23:16:00.073Z,5.10
2024-03-27T23:18:26.582Z,6.00
2024-03-27T23:20:54.499Z,6.97
2024-03-27T23:23:20.806Z,5.80
2024-03-27T23:25:48.025Z,5.37
2024-03-27T23:28:14.708Z,8.07
2024-03-27T23:30:43.672Z,6.97
2024-03-27T23:33:10.015Z,4.67
2024-03-27T23:35:36.668Z,7.43
2024-03-27T23:38:03.536Z,5.57
2024-03-27T23:40:30.497Z,6.33
2024-03-27T23:42:56.875Z,5.63
2024-03-27T23:45:23.610Z,4.67
2024-03-27T23:47:50.553Z,5.47
2024-03-27T23:50:17.313Z,7.20
2024-03-27T23:52:43.788Z,6.87
2024-03-27T23:55:10.534Z,6.13
2024-03-27T23:57:37.338Z,4.70
